Terminal Aerodrome Forecast
Issued by NWS Charleston, WV

Current Version | Previous Version | Graphics & Text | Print | Product List | Glossary On
Versions: 1 2 3 4 5 6 7 8 9 10 11 12 13 14 15 16 17 18 19 20 21 22 23 24 25
000
FTUS41 KRLX 271000 AAB
TAFEKN
TAF AMD
KEKN 271028Z 2710/2806 31007KT 3SM -SN OVC020
      TEMPO 2710/2711 2SM -SN BKN012
     FM271200 32005KT 6SM -SN BKN020
     FM271300 32005KT P6SM BKN020
     FM271600 31006KT P6SM BKN025
     FM272300 00000KT P6SM SCT030
     FM280400 00000KT P6SM BKN200=

USA.gov is the U.S. government's official web portal to all federal, state and local government web resources and services.